createdAt,value
2022-09-02T00:02:45.170Z,3.33
2022-09-02T00:07:49.031Z,2.90
2022-09-02T00:12:54.494Z,3.30
2022-09-02T00:18:01.026Z,3.15
2022-09-02T00:23:04.696Z,2.75
2022-09-02T00:28:09.710Z,3.15
2022-09-02T00:33:16.928Z,3.00
2022-09-02T00:38:20.860Z,3.08
2022-09-02T00:43:38.911Z,2.75
2022-09-02T00:48:46.676Z,3.90
2022-09-02T00:53:52.095Z,3.15
2022-09-02T00:58:58.751Z,3.70
2022-09-02T01:04:02.808Z,4.18
2022-09-02T01:09:11.425Z,5.40
2022-09-02T01:14:17.366Z,4.47
2022-09-02T01:24:32.760Z,5.88
2022-09-02T01:29:36.557Z,5.47
2022-09-02T01:34:40.954Z,3.75
2022-09-02T01:39:46.390Z,5.38
2022-09-02T01:44:50.418Z,5.25
2022-09-02T01:49:54.214Z,4.65
2022-09-02T01:55:00.215Z,4.53
2022-09-02T02:00:07.918Z,4.80
2022-09-02T02:05:16.467Z,4.05
2022-09-02T02:10:23.873Z,3.75
2022-09-02T02:20:30.598Z,3.80
2022-09-02T02:25:35.978Z,4.70
2022-09-02T02:30:39.949Z,4.55
2022-09-02T02:35:46.307Z,4.53
2022-09-02T02:40:56.643Z,4.40
2022-09-02T02:46:01.688Z,3.88
2022-09-02T02:51:06.427Z,4.10
2022-09-02T02:56:12.150Z,4.90
2022-09-02T03:01:16.038Z,4.70
2022-09-02T03:06:23.916Z,5.07
2022-09-02T03:11:33.123Z,6.47
2022-09-02T03:16:38.127Z,8.52
2022-09-02T03:21:42.208Z,7.63
2022-09-02T03:26:48.592Z,4.90
2022-09-02T03:31:54.043Z,5.43
2022-09-02T03:36:59.074Z,4.32
2022-09-02T03:42:05.864Z,4.90
2022-09-02T03:47:10.144Z,3.80
2022-09-02T03:52:13.980Z,3.78
2022-09-02T03:57:20.662Z,4.95
2022-09-02T04:02:25.548Z,4.68
2022-09-02T04:07:29.710Z,8.70
2022-09-02T04:12:34.961Z,4.70
2022-09-02T04:17:39.817Z,4.10
2022-09-02T04:22:45.970Z,4.35
2022-09-02T04:27:51.576Z,5.07
2022-09-02T04:32:55.534Z,4.30
2022-09-02T04:37:59.985Z,4.45
2022-09-02T04:43:05.238Z,5.00
2022-09-02T04:48:10.586Z,4.32
2022-09-02T04:53:14.703Z,4.03
2022-09-02T04:58:21.142Z,4.20
2022-09-02T05:03:28.258Z,3.97
2022-09-02T05:08:33.490Z,4.65
2022-09-02T05:13:40.089Z,4.50
2022-09-02T05:18:44.167Z,4.78
2022-09-02T05:23:49.162Z,4.13
2022-09-02T05:28:55.364Z,4.43
2022-09-02T05:33:59.331Z,4.22
2022-09-02T05:39:05.325Z,4.85
2022-09-02T05:44:12.800Z,4.18
2022-09-02T05:49:18.370Z,3.55
2022-09-02T05:54:30.237Z,4.00
2022-09-02T05:59:42.536Z,4.93
2022-09-02T06:04:52.432Z,3.78
2022-09-02T06:09:56.867Z,4.10
2022-09-02T06:15:05.054Z,4.18
2022-09-02T06:20:11.301Z,3.72
2022-09-02T06:25:21.003Z,3.72
2022-09-02T06:30:27.314Z,4.20
2022-09-02T06:35:33.541Z,4.50
2022-09-02T06:40:46.830Z,5.72
2022-09-02T06:45:53.455Z,4.15
2022-09-02T06:50:58.583Z,4.25
2022-09-02T06:56:11.111Z,4.13
2022-09-02T07:01:23.122Z,4.38
2022-09-02T07:06:27.649Z,4.00
2022-09-02T07:11:32.665Z,4.80
2022-09-02T07:16:46.458Z,3.90
2022-09-02T07:21:51.287Z,3.28
2022-09-02T07:26:57.562Z,3.63
2022-09-02T07:32:05.143Z,3.40
2022-09-02T07:37:11.192Z,3.13
2022-09-02T07:42:18.319Z,3.65
2022-09-02T07:47:24.703Z,3.25
2022-09-02T07:57:32.979Z,2.88
2022-09-02T08:02:38.199Z,2.70
2022-09-02T08:07:42.269Z,3.13
2022-09-02T08:12:46.803Z,3.00
2022-09-02T08:17:51.936Z,2.60
2022-09-02T08:23:05.278Z,2.88
2022-09-02T08:28:15.687Z,2.50
2022-09-02T08:33:20.969Z,2.70
2022-09-02T08:38:24.628Z,2.05
2022-09-02T08:43:32.847Z,1.95
2022-09-02T08:48:42.221Z,2.10
2022-09-02T08:53:51.343Z,1.42
2022-09-02T08:58:56.974Z,1.83
2022-09-02T09:04:17.799Z,1.88
2022-09-02T09:09:32.584Z,2.45
2022-09-02T09:14:45.068Z,2.27
2022-09-02T09:19:53.982Z,2.22
2022-09-02T09:24:58.630Z,2.60
2022-09-02T09:30:03.413Z,1.90
2022-09-02T09:35:10.925Z,1.92
2022-09-02T09:40:28.383Z,1.83
2022-09-02T09:45:34.786Z,1.90
2022-09-02T09:50:39.931Z,1.50
2022-09-02T09:55:53.286Z,1.50
2022-09-02T10:01:00.643Z,2.00
2022-09-02T10:06:22.286Z,1.95
2022-09-02T10:11:28.432Z,1.80
2022-09-02T10:16:51.970Z,1.80
2022-09-02T10:22:37.868Z,1.90
2022-09-02T10:28:04.320Z,1.83
2022-09-02T10:33:28.701Z,2.10
2022-09-02T10:38:42.597Z,2.10
2022-09-02T10:44:04.444Z,2.25
2022-09-02T10:49:16.087Z,2.28
2022-09-02T10:54:35.622Z,2.10
2022-09-02T10:59:44.939Z,3.00
2022-09-02T11:04:56.615Z,2.78
2022-09-02T11:10:10.741Z,2.50
2022-09-02T11:15:22.067Z,2.50
2022-09-02T11:20:32.114Z,3.88
2022-09-02T11:25:42.875Z,3.63
2022-09-02T11:30:52.767Z,2.53
2022-09-02T11:35:59.142Z,2.60
2022-09-02T11:41:34.295Z,3.15
2022-09-02T11:47:02.557Z,3.08
2022-09-02T11:57:33.976Z,2.38
2022-09-02T12:02:42.419Z,2.35
2022-09-02T12:07:50.553Z,2.45
2022-09-02T12:13:08.375Z,2.67
2022-09-02T12:18:28.458Z,2.20
2022-09-02T12:24:10.426Z,1.92
2022-09-02T12:29:33.346Z,2.00
2022-09-02T12:34:57.721Z,2.60
2022-09-02T12:40:12.956Z,2.60
2022-09-02T12:50:51.212Z,2.58
2022-09-02T12:55:59.790Z,2.15
2022-09-02T13:01:15.739Z,2.80
2022-09-02T13:06:28.200Z,2.22
2022-09-02T13:12:12.770Z,2.22
2022-09-02T13:17:36.525Z,2.30
2022-09-02T13:23:00.878Z,2.25
2022-09-02T13:28:34.615Z,2.47
2022-09-02T13:33:42.611Z,2.15
2022-09-02T13:38:46.573Z,2.38
2022-09-02T13:44:06.468Z,3.17
2022-09-02T13:49:20.473Z,2.20
2022-09-02T13:54:34.465Z,1.88
2022-09-02T13:59:40.520Z,2.22
2022-09-02T14:04:45.787Z,2.20
2022-09-02T14:09:50.464Z,1.95
2022-09-02T14:14:54.997Z,1.80
2022-09-02T14:20:37.032Z,2.13
2022-09-02T14:25:52.290Z,2.33
2022-09-02T14:31:02.861Z,2.17
2022-09-02T14:36:30.839Z,1.98
2022-09-02T14:41:45.371Z,2.30
2022-09-02T14:46:51.772Z,2.50
2022-09-02T14:52:01.120Z,2.10
2022-09-02T14:57:05.905Z,2.10
2022-09-02T15:02:36.629Z,2.30
2022-09-02T15:07:51.756Z,2.00
2022-09-02T15:12:57.371Z,2.05
2022-09-02T15:18:02.542Z,1.70
2022-09-02T15:23:07.940Z,2.80
2022-09-02T15:28:12.906Z,3.03
2022-09-02T15:33:17.594Z,2.10
2022-09-02T15:38:23.029Z,3.05
2022-09-02T15:43:29.629Z,2.42
2022-09-02T15:48:34.239Z,2.60
2022-09-02T15:53:39.428Z,2.47
2022-09-02T15:58:43.305Z,2.30
2022-09-02T16:03:47.054Z,2.78
2022-09-02T16:08:52.706Z,2.45
2022-09-02T16:19:00.294Z,2.40
2022-09-02T16:24:05.729Z,2.40
2022-09-02T16:29:14.350Z,2.50
2022-09-02T16:34:21.155Z,2.97
2022-09-02T16:39:26.339Z,2.35
2022-09-02T16:44:34.016Z,2.90
2022-09-02T16:49:37.966Z,2.72
2022-09-02T16:54:44.666Z,2.85
2022-09-02T16:59:49.476Z,2.78
2022-09-02T17:04:53.573Z,2.70
2022-09-02T17:09:58.666Z,2.85
2022-09-02T17:15:02.505Z,3.20
2022-09-02T17:20:06.961Z,2.58
2022-09-02T17:25:13.098Z,3.60
2022-09-02T17:30:16.978Z,4.07
2022-09-02T17:35:20.982Z,3.70
2022-09-02T17:40:43.628Z,3.47
2022-09-02T17:45:47.475Z,3.65
2022-09-02T17:51:09.831Z,3.70
2022-09-02T17:56:35.131Z,4.00
2022-09-02T18:01:58.168Z,3.90
2022-09-02T18:07:10.686Z,3.70
2022-09-02T18:12:18.692Z,4.00
2022-09-02T18:17:27.147Z,3.53
2022-09-02T18:23:00.196Z,3.63
2022-09-02T18:28:25.559Z,4.18
2022-09-02T18:38:49.735Z,4.45
2022-09-02T18:44:38.042Z,4.07
2022-09-02T18:49:46.644Z,4.35
2022-09-02T18:54:56.797Z,4.50
2022-09-02T19:00:03.767Z,4.72
2022-09-02T19:05:12.463Z,4.95
2022-09-02T19:10:16.350Z,4.43
2022-09-02T19:15:20.916Z,4.25
2022-09-02T19:20:26.830Z,4.13
2022-09-02T19:25:32.117Z,4.57
2022-09-02T19:30:37.646Z,4.13
2022-09-02T19:35:48.090Z,3.80
2022-09-02T19:40:53.638Z,4.28
2022-09-02T19:45:58.209Z,3.92
2022-09-02T19:51:05.013Z,4.63
2022-09-02T20:01:13.053Z,4.80
2022-09-02T20:06:19.073Z,5.40
2022-09-02T20:11:23.111Z,4.78
2022-09-02T20:16:29.071Z,4.35
2022-09-02T20:26:56.407Z,5.90
2022-09-02T20:32:16.740Z,6.05
2022-09-02T20:37:33.420Z,5.90
2022-09-02T20:43:01.761Z,7.35
2022-09-02T20:48:25.189Z,7.70
2022-09-02T20:54:00.757Z,7.47
2022-09-02T20:59:12.182Z,8.32
2022-09-02T21:04:29.486Z,8.10
2022-09-02T21:09:49.581Z,8.60
2022-09-02T21:14:57.651Z,8.25
2022-09-02T21:20:12.048Z,9.00
2022-09-02T21:25:24.970Z,8.98
2022-09-02T21:30:37.699Z,7.40
2022-09-02T21:35:43.749Z,7.50
2022-09-02T21:41:04.030Z,7.95
2022-09-02T21:46:16.942Z,6.38
2022-09-02T21:51:31.244Z,5.80
2022-09-02T21:56:57.555Z,6.05
2022-09-02T22:07:19.034Z,5.40
2022-09-02T22:12:26.793Z,6.55
2022-09-02T22:17:44.123Z,5.60
2022-09-02T22:22:54.384Z,5.97
2022-09-02T22:28:09.543Z,5.05
2022-09-02T22:33:17.878Z,5.23
2022-09-02T22:38:26.560Z,5.22
2022-09-02T22:43:41.675Z,4.82
2022-09-02T22:49:10.246Z,5.30
2022-09-02T22:54:14.041Z,4.40
2022-09-02T22:59:40.909Z,3.75
2022-09-02T23:05:03.427Z,4.05
2022-09-02T23:10:26.219Z,3.53
2022-09-02T23:15:37.897Z,3.85
2022-09-02T23:20:52.187Z,3.70
2022-09-02T23:26:13.119Z,3.60
2022-09-02T23:31:28.030Z,3.70
2022-09-02T23:36:41.451Z,3.38
2022-09-02T23:41:45.224Z,3.55
2022-09-02T23:47:02.723Z,3.47
2022-09-02T23:52:20.639Z,3.67
2022-09-02T23:57:44.642Z,3.95
